Atoka, New Mexico
Current Conditions -  °F | °C
As of 9:55 PM on Friday 19 Dec 2014 (Local Time) from KATS Reporting Station
Clear Clear  
Wind Chill: 29°   Ceiling: Unl
Heat Index: 37°   Visibility: 10mi
Dew Point: 27°   Wind: 13mph
Humidity: 65%   Direction: 230°SW
Pressure: 30.14"   Gusts: NA
Location:  32.7449°N, 104.256°W
Report Text: KATS 200455Z AUTO 23011KT 10SM CLR 03/M03 A3014 RMK AO2
Loading
Personal Weather Stations






























Interactive Weather Map New forecast layout! Learn more

10-Day Weather Forecast

Advertisements
Track Severe Weather on mobile